sensor_id;sensor_type;location;lat;lon;timestamp;pressure;altitude;pressure_sealevel;temperature;humidity
23953;BME280;12163;49.316;6.092;2023-04-03T00:00:48;100350.31;;;6.72;66.72
23953;BME280;12163;49.316;6.092;2023-04-03T00:03:17;100353.00;;;6.72;66.17
23953;BME280;12163;49.316;6.092;2023-04-03T00:05:44;100348.69;;;6.71;66.53
23953;BME280;12163;49.316;6.092;2023-04-03T00:08:10;100354.84;;;6.71;66.17
23953;BME280;12163;49.316;6.092;2023-04-03T00:10:37;100354.84;;;6.71;66.11
23953;BME280;12163;49.316;6.092;2023-04-03T00:13:05;100348.13;;;6.69;65.75
23953;BME280;12163;49.316;6.092;2023-04-03T00:15:33;100358.84;;;6.69;65.77
23953;BME280;12163;49.316;6.092;2023-04-03T00:17:59;100356.72;;;6.71;65.44
23953;BME280;12163;49.316;6.092;2023-04-03T00:20:26;100353.47;;;6.69;65.61
23953;BME280;12163;49.316;6.092;2023-04-03T00:22:53;100354.75;;;6.66;65.64
23953;BME280;12163;49.316;6.092;2023-04-03T00:25:21;100353.97;;;6.66;65.60
23953;BME280;12163;49.316;6.092;2023-04-03T00:27:48;100354.41;;;6.63;65.51
23953;BME280;12163;49.316;6.092;2023-04-03T00:30:17;100345.81;;;6.61;65.76
23953;BME280;12163;49.316;6.092;2023-04-03T00:32:44;100349.31;;;6.62;65.28
23953;BME280;12163;49.316;6.092;2023-04-03T00:35:10;100354.19;;;6.64;65.18
23953;BME280;12163;49.316;6.092;2023-04-03T00:37:37;100347.69;;;6.61;65.06
23953;BME280;12163;49.316;6.092;2023-04-03T00:40:05;100354.91;;;6.60;64.39
23953;BME280;12163;49.316;6.092;2023-04-03T00:42:32;100345.13;;;6.54;63.82
23953;BME280;12163;49.316;6.092;2023-04-03T00:47:27;100350.41;;;6.49;63.10
23953;BME280;12163;49.316;6.092;2023-04-03T00:49:54;100351.94;;;6.45;62.80
23953;BME280;12163;49.316;6.092;2023-04-03T00:52:23;100349.16;;;6.40;61.35
23953;BME280;12163;49.316;6.092;2023-04-03T00:54:54;100344.25;;;6.37;61.57
23953;BME280;12163;49.316;6.092;2023-04-03T00:57:23;100348.00;;;6.36;61.71
23953;BME280;12163;49.316;6.092;2023-04-03T00:59:53;100355.00;;;6.37;62.12
23953;BME280;12163;49.316;6.092;2023-04-03T01:02:21;100355.00;;;6.37;61.25
23953;BME280;12163;49.316;6.092;2023-04-03T01:04:48;100353.63;;;6.35;61.51
23953;BME280;12163;49.316;6.092;2023-04-03T01:07:18;100360.25;;;6.32;61.37
23953;BME280;12163;49.316;6.092;2023-04-03T01:09:48;100356.44;;;6.28;61.57
23953;BME280;12163;49.316;6.092;2023-04-03T01:12:22;100359.59;;;6.25;61.17
23953;BME280;12163;49.316;6.092;2023-04-03T01:14:52;100361.22;;;6.26;60.58
23953;BME280;12163;49.316;6.092;2023-04-03T01:25:26;100364.38;;;6.23;60.64
23953;BME280;12163;49.316;6.092;2023-04-03T01:27:53;100363.75;;;6.21;59.96
23953;BME280;12163;49.316;6.092;2023-04-03T01:30:24;100365.31;;;6.17;59.89
23953;BME280;12163;49.316;6.092;2023-04-03T01:32:52;100371.13;;;6.14;60.18
23953;BME280;12163;49.316;6.092;2023-04-03T01:35:19;100371.13;;;6.14;60.54
23953;BME280;12163;49.316;6.092;2023-04-03T01:37:45;100369.50;;;6.13;60.08
23953;BME280;12163;49.316;6.092;2023-04-03T01:40:12;100368.72;;;6.13;60.37
23953;BME280;12163;49.316;6.092;2023-04-03T01:42:39;100369.97;;;6.10;60.22
23953;BME280;12163;49.316;6.092;2023-04-03T01:45:06;100371.63;;;6.11;60.75
23953;BME280;12163;49.316;6.092;2023-04-03T01:47:32;100374.88;;;6.13;60.03
23953;BME280;12163;49.316;6.092;2023-04-03T01:49:59;100369.16;;;6.10;60.06
23953;BME280;12163;49.316;6.092;2023-04-03T01:52:26;100386.53;;;6.07;59.23
23953;BME280;12163;49.316;6.092;2023-04-03T01:54:52;100379.56;;;6.06;59.53
23953;BME280;12163;49.316;6.092;2023-04-03T01:57:19;100372.56;;;6.05;59.01
23953;BME280;12163;49.316;6.092;2023-04-03T01:59:46;100379.56;;;6.06;59.54
23953;BME280;12163;49.316;6.092;2023-04-03T02:02:12;100376.63;;;6.08;59.27
23953;BME280;12163;49.316;6.092;2023-04-03T02:04:41;100372.09;;;6.08;59.13
23953;BME280;12163;49.316;6.092;2023-04-03T02:07:07;100380.69;;;6.10;59.55
23953;BME280;12163;49.316;6.092;2023-04-03T02:09:34;100372.88;;;6.09;59.16
23953;BME280;12163;49.316;6.092;2023-04-03T02:12:01;100375.81;;;6.07;59.27
23953;BME280;12163;49.316;6.092;2023-04-03T02:14:28;100369.88;;;6.05;59.24
23953;BME280;12163;49.316;6.092;2023-04-03T02:16:55;100379.78;;;6.05;58.50
23953;BME280;12163;49.316;6.092;2023-04-03T02:19:21;100372.22;;;6.02;58.18
23953;BME280;12163;49.316;6.092;2023-04-03T02:21:48;100369.66;;;5.95;58.45
23953;BME280;12163;49.316;6.092;2023-04-03T02:24:15;100371.88;;;5.87;58.67
23953;BME280;12163;49.316;6.092;2023-04-03T02:26:41;100370.56;;;5.78;58.56
23953;BME280;12163;49.316;6.092;2023-04-03T02:29:08;100366.28;;;5.65;58.44
23953;BME280;12163;49.316;6.092;2023-04-03T02:31:34;100364.41;;;5.54;58.78
23953;BME280;12163;49.316;6.092;2023-04-03T02:34:01;100367.44;;;5.46;59.28
23953;BME280;12163;49.316;6.092;2023-04-03T02:36:27;100369.63;;;5.38;59.26
23953;BME280;12163;49.316;6.092;2023-04-03T02:38:57;100373.47;;;5.30;59.39
23953;BME280;12163;49.316;6.092;2023-04-03T02:41:23;100370.09;;;5.23;59.96
23953;BME280;12163;49.316;6.092;2023-04-03T02:43:51;100368.34;;;5.17;60.41
23953;BME280;12163;49.316;6.092;2023-04-03T02:46:18;100366.59;;;5.11;60.90
23953;BME280;12163;49.316;6.092;2023-04-03T02:48:45;100368.91;;;5.08;60.48
23953;BME280;12163;49.316;6.092;2023-04-03T02:51:11;100368.53;;;5.04;60.68
23953;BME280;12163;49.316;6.092;2023-04-03T02:53:38;100364.13;;;4.98;61.02
23953;BME280;12163;49.316;6.092;2023-04-03T02:56:04;100370.38;;;4.93;61.51
23953;BME280;12163;49.316;6.092;2023-04-03T02:58:31;100373.75;;;4.88;61.64
23953;BME280;12163;49.316;6.092;2023-04-03T03:00:59;100370.94;;;4.83;61.69
23953;BME280;12163;49.316;6.092;2023-04-03T03:03:26;100375.91;;;4.80;62.11
23953;BME280;12163;49.316;6.092;2023-04-03T03:06:13;100375.22;;;4.73;61.94
23953;BME280;12163;49.316;6.092;2023-04-03T03:08:40;100376.25;;;4.72;62.27
23953;BME280;12163;49.316;6.092;2023-04-03T03:11:08;100383.09;;;4.68;61.99
23953;BME280;12163;49.316;6.092;2023-04-03T03:13:35;100375.97;;;4.62;62.29
23953;BME280;12163;49.316;6.092;2023-04-03T03:16:02;100371.53;;;4.56;62.81
23953;BME280;12163;49.316;6.092;2023-04-03T03:18:29;100369.78;;;4.50;62.92
23953;BME280;12163;49.316;6.092;2023-04-03T03:20:58;100369.63;;;4.45;63.00
23953;BME280;12163;49.316;6.092;2023-04-03T03:23:26;100363.09;;;4.41;63.09
23953;BME280;12163;49.316;6.092;2023-04-03T03:25:58;100371.22;;;4.34;63.30
23953;BME280;12163;49.316;6.092;2023-04-03T03:28:25;100363.63;;;4.31;63.66
23953;BME280;12163;49.316;6.092;2023-04-03T03:30:52;100360.59;;;4.28;64.08
23953;BME280;12163;49.316;6.092;2023-04-03T03:33:19;100370.13;;;4.24;63.94
23953;BME280;12163;49.316;6.092;2023-04-03T03:35:45;100358.84;;;4.22;64.14
23953;BME280;12163;49.316;6.092;2023-04-03T03:38:12;100366.47;;;4.18;64.40
23953;BME280;12163;49.316;6.092;2023-04-03T03:40:39;100360.31;;;4.18;64.29
23953;BME280;12163;49.316;6.092;2023-04-03T03:43:05;100359.72;;;4.16;64.57
23953;BME280;12163;49.316;6.092;2023-04-03T03:45:32;100360.75;;;4.15;64.61
23953;BME280;12163;49.316;6.092;2023-04-03T03:47:59;100361.66;;;4.09;64.29
23953;BME280;12163;49.316;6.092;2023-04-03T03:50:25;100356.75;;;4.06;64.58
23953;BME280;12163;49.316;6.092;2023-04-03T03:52:52;100361.53;;;4.04;64.63
23953;BME280;12163;49.316;6.092;2023-04-03T03:55:18;100364.63;;;4.01;64.82
23953;BME280;12163;49.316;6.092;2023-04-03T03:57:45;100363.59;;;4.02;64.91
23953;BME280;12163;49.316;6.092;2023-04-03T04:00:12;100357.22;;;4.03;64.65
23953;BME280;12163;49.316;6.092;2023-04-03T04:02:38;100365.44;;;4.01;64.81
23953;BME280;12163;49.316;6.092;2023-04-03T04:05:06;100363.81;;;4.00;64.25
23953;BME280;12163;49.316;6.092;2023-04-03T04:07:32;100363.22;;;3.98;64.80
23953;BME280;12163;49.316;6.092;2023-04-03T04:09:59;100358.09;;;3.97;64.89
23953;BME280;12163;49.316;6.092;2023-04-03T04:12:26;100362.84;;;3.95;64.67
23953;BME280;12163;49.316;6.092;2023-04-03T04:14:52;100362.25;;;3.93;64.53
23953;BME280;12163;49.316;6.092;2023-04-03T04:17:19;100357.94;;;3.92;64.62
23953;BME280;12163;49.316;6.092;2023-04-03T04:19:46;100368.03;;;3.90;64.86
23953;BME280;12163;49.316;6.092;2023-04-03T04:22:13;100363.13;;;3.87;64.89
23953;BME280;12163;49.316;6.092;2023-04-03T04:24:39;100363.59;;;3.84;64.91
23953;BME280;12163;49.316;6.092;2023-04-03T04:27:06;100359.28;;;3.83;65.03
23953;BME280;12163;49.316;6.092;2023-04-03T04:29:32;100361.56;;;3.79;64.90
23953;BME280;12163;49.316;6.092;2023-04-03T04:32:03;100363.44;;;3.79;64.82
23953;BME280;12163;49.316;6.092;2023-04-03T04:34:30;100356.69;;;3.76;64.92
23953;BME280;12163;49.316;6.092;2023-04-03T04:36:57;100375.56;;;3.75;64.97
23953;BME280;12163;49.316;6.092;2023-04-03T04:39:23;100363.28;;;3.74;65.14
23953;BME280;12163;49.316;6.092;2023-04-03T04:41:50;100363.72;;;3.71;65.27
23953;BME280;12163;49.316;6.092;2023-04-03T04:44:17;100364.59;;;3.65;65.54
23953;BME280;12163;49.316;6.092;2023-04-03T04:46:44;100367.72;;;3.62;66.09
23953;BME280;12163;49.316;6.092;2023-04-03T04:49:11;100374.53;;;3.58;65.69
23953;BME280;12163;49.316;6.092;2023-04-03T04:51:37;100367.19;;;3.53;65.93
23953;BME280;12163;49.316;6.092;2023-04-03T04:54:16;100374.59;;;3.51;66.40
23953;BME280;12163;49.316;6.092;2023-04-03T04:56:43;100375.59;;;4.11;69.26
23953;BME280;12163;49.316;6.092;2023-04-03T04:59:09;100358.44;;;5.06;69.52
23953;BME280;12163;49.316;6.092;2023-04-03T05:01:36;100363.50;;;5.83;68.04
23953;BME280;12163;49.316;6.092;2023-04-03T05:04:03;100358.72;;;6.36;66.11
23953;BME280;12163;49.316;6.092;2023-04-03T05:06:30;100361.00;;;6.56;65.50
23953;BME280;12163;49.316;6.092;2023-04-03T05:08:58;100362.25;;;6.81;63.77
23953;BME280;12163;49.316;6.092;2023-04-03T05:11:25;100357.53;;;6.99;62.50
23953;BME280;12163;49.316;6.092;2023-04-03T05:13:52;100362.63;;;7.01;61.80
23953;BME280;12163;49.316;6.092;2023-04-03T05:16:19;100360.22;;;6.88;61.46
23953;BME280;12163;49.316;6.092;2023-04-03T05:18:45;100366.50;;;6.77;60.56
23953;BME280;12163;49.316;6.092;2023-04-03T05:21:12;100363.72;;;6.72;61.80
23953;BME280;12163;49.316;6.092;2023-04-03T05:23:39;100367.88;;;6.79;60.86
23953;BME280;12163;49.316;6.092;2023-04-03T05:26:05;100363.59;;;6.39;59.35
23953;BME280;12163;49.316;6.092;2023-04-03T05:28:32;100364.38;;;6.23;60.41
23953;BME280;12163;49.316;6.092;2023-04-03T05:30:59;100370.47;;;6.07;60.54
23953;BME280;12163;49.316;6.092;2023-04-03T05:33:26;100379.31;;;5.73;60.41
23953;BME280;12163;49.316;6.092;2023-04-03T05:35:53;100379.44;;;5.44;60.87
23953;BME280;12163;49.316;6.092;2023-04-03T05:38:21;100380.09;;;5.16;61.50
23953;BME280;12163;49.316;6.092;2023-04-03T05:40:47;100384.25;;;5.01;61.89
23953;BME280;12163;49.316;6.092;2023-04-03T05:43:14;100381.63;;;4.83;62.02
23953;BME280;12163;49.316;6.092;2023-04-03T05:45:41;100391.69;;;4.70;62.63
23953;BME280;12163;49.316;6.092;2023-04-03T05:48:09;100393.13;;;4.54;62.54
23953;BME280;12163;49.316;6.092;2023-04-03T05:50:37;100395.31;;;4.46;63.07
23953;BME280;12163;49.316;6.092;2023-04-03T05:53:21;100396.19;;;4.40;63.15
23953;BME280;12163;49.316;6.092;2023-04-03T05:55:48;100398.53;;;4.36;63.43
23953;BME280;12163;49.316;6.092;2023-04-03T05:58:15;100399.63;;;4.29;63.48
23953;BME280;12163;49.316;6.092;2023-04-03T06:00:42;100405.88;;;4.23;64.02
23953;BME280;12163;49.316;6.092;2023-04-03T06:03:08;100408.38;;;4.18;64.40
23953;BME280;12163;49.316;6.092;2023-04-03T06:05:35;100406.72;;;4.53;65.16
23953;BME280;12163;49.316;6.092;2023-04-03T06:08:03;100399.56;;;4.65;63.88
23953;BME280;12163;49.316;6.092;2023-04-03T06:10:29;100406.19;;;4.62;63.71
23953;BME280;12163;49.316;6.092;2023-04-03T06:12:56;100404.19;;;4.58;63.85
23953;BME280;12163;49.316;6.092;2023-04-03T06:15:23;100410.00;;;4.55;64.59
23953;BME280;12163;49.316;6.092;2023-04-03T06:17:50;100408.94;;;4.56;64.07
23953;BME280;12163;49.316;6.092;2023-04-03T06:20:16;100402.94;;;4.60;64.59
23953;BME280;12163;49.316;6.092;2023-04-03T06:22:43;100412.34;;;4.63;64.34
23953;BME280;12163;49.316;6.092;2023-04-03T06:25:10;100415.25;;;4.61;64.27
23953;BME280;12163;49.316;6.092;2023-04-03T06:27:37;100423.72;;;4.58;64.58
23953;BME280;12163;49.316;6.092;2023-04-03T06:30:06;100425.56;;;4.58;64.13
23953;BME280;12163;49.316;6.092;2023-04-03T06:32:33;100428.84;;;4.60;64.24
23953;BME280;12163;49.316;6.092;2023-04-03T06:34:59;100430.00;;;4.64;64.48
23953;BME280;12163;49.316;6.092;2023-04-03T06:37:26;100436.56;;;4.68;64.08
23953;BME280;12163;49.316;6.092;2023-04-03T06:39:55;100435.66;;;4.74;63.50
23953;BME280;12163;49.316;6.092;2023-04-03T06:42:22;100434.16;;;4.78;63.71
23953;BME280;12163;49.316;6.092;2023-04-03T06:44:49;100435.13;;;4.83;63.04
23953;BME280;12163;49.316;6.092;2023-04-03T06:47:16;100429.06;;;4.88;63.15
23953;BME280;12163;49.316;6.092;2023-04-03T06:49:43;100433.28;;;4.95;62.75
23953;BME280;12163;49.316;6.092;2023-04-03T06:52:10;100428.09;;;5.00;62.35
23953;BME280;12163;49.316;6.092;2023-04-03T06:54:39;100430.66;;;5.06;62.02
23953;BME280;12163;49.316;6.092;2023-04-03T06:57:06;100433.47;;;5.11;61.70
23953;BME280;12163;49.316;6.092;2023-04-03T06:59:34;100432.56;;;5.17;61.78
23953;BME280;12163;49.316;6.092;2023-04-03T07:02:01;100427.31;;;5.22;61.73
23953;BME280;12163;49.316;6.092;2023-04-03T07:04:27;100436.06;;;5.29;61.60
23953;BME280;12163;49.316;6.092;2023-04-03T07:06:54;100422.84;;;5.34;61.08
23953;BME280;12163;49.316;6.092;2023-04-03T07:09:21;100430.50;;;5.42;61.16
23953;BME280;12163;49.316;6.092;2023-04-03T07:11:47;100435.19;;;5.47;60.81
23953;BME280;12163;49.316;6.092;2023-04-03T07:14:14;100435.53;;;5.50;60.55
23953;BME280;12163;49.316;6.092;2023-04-03T07:16:41;100441.34;;;5.59;60.68
23953;BME280;12163;49.316;6.092;2023-04-03T07:19:08;100441.81;;;5.67;60.56
23953;BME280;12163;49.316;6.092;2023-04-03T07:21:35;100442.53;;;5.74;60.11
23953;BME280;12163;49.316;6.092;2023-04-03T07:24:02;100442.69;;;5.79;59.89
23953;BME280;12163;49.316;6.092;2023-04-03T07:26:28;100427.78;;;5.83;59.60
23953;BME280;12163;49.316;6.092;2023-04-03T07:28:55;100432.69;;;5.86;59.84
23953;BME280;12163;49.316;6.092;2023-04-03T07:31:22;100434.66;;;5.91;59.38
23953;BME280;12163;49.316;6.092;2023-04-03T07:33:49;100435.00;;;5.94;59.28
23953;BME280;12163;49.316;6.092;2023-04-03T07:36:18;100434.31;;;5.99;59.28
23953;BME280;12163;49.316;6.092;2023-04-03T07:38:45;100436.88;;;6.05;59.36
23953;BME280;12163;49.316;6.092;2023-04-03T07:41:14;100437.53;;;6.12;59.57
23953;BME280;12163;49.316;6.092;2023-04-03T07:43:42;100436.84;;;6.17;60.07
23953;BME280;12163;49.316;6.092;2023-04-03T07:46:08;100438.34;;;6.24;59.95
23953;BME280;12163;49.316;6.092;2023-04-03T07:48:35;100427.25;;;6.32;59.31
23953;BME280;12163;49.316;6.092;2023-04-03T07:51:03;100434.03;;;6.35;59.68
23953;BME280;12163;49.316;6.092;2023-04-03T07:53:31;100432.50;;;6.39;59.29
23953;BME280;12163;49.316;6.092;2023-04-03T07:55:59;100441.00;;;6.47;59.82
23953;BME280;12163;49.316;6.092;2023-04-03T07:58:25;100433.63;;;6.54;59.74
23953;BME280;12163;49.316;6.092;2023-04-03T08:00:52;100440.13;;;6.58;59.02
23953;BME280;12163;49.316;6.092;2023-04-03T08:03:19;100434.88;;;6.63;59.02
23953;BME280;12163;49.316;6.092;2023-04-03T08:05:47;100433.19;;;6.73;59.18
23953;BME280;12163;49.316;6.092;2023-04-03T08:08:20;100438.34;;;6.75;58.31
23953;BME280;12163;49.316;6.092;2023-04-03T08:10:49;100430.72;;;6.83;58.51
23953;BME280;12163;49.316;6.092;2023-04-03T08:13:16;100433.84;;;6.92;58.09
23953;BME280;12163;49.316;6.092;2023-04-03T08:15:43;100433.22;;;7.01;57.67
23953;BME280;12163;49.316;6.092;2023-04-03T08:18:10;100429.00;;;7.05;57.82
23953;BME280;12163;49.316;6.092;2023-04-03T08:20:38;100425.13;;;7.13;57.14
23953;BME280;12163;49.316;6.092;2023-04-03T08:23:05;100423.66;;;7.22;56.88
23953;BME280;12163;49.316;6.092;2023-04-03T08:25:32;100423.25;;;7.30;56.25
23953;BME280;12163;49.316;6.092;2023-04-03T08:27:58;100424.22;;;7.40;55.62
23953;BME280;12163;49.316;6.092;2023-04-03T08:30:25;100418.13;;;7.61;54.72
23953;BME280;12163;49.316;6.092;2023-04-03T08:32:52;100428.69;;;7.84;54.62
23953;BME280;12163;49.316;6.092;2023-04-03T08:35:19;100429.84;;;8.05;53.72
23953;BME280;12163;49.316;6.092;2023-04-03T08:37:46;100429.97;;;8.15;52.53
23953;BME280;12163;49.316;6.092;2023-04-03T08:40:15;100440.22;;;8.34;52.42
23953;BME280;12163;49.316;6.092;2023-04-03T08:48:12;100433.00;;;8.39;50.55
23953;BME280;12163;49.316;6.092;2023-04-03T08:50:44;100438.41;;;8.39;50.28
23953;BME280;12163;49.316;6.092;2023-04-03T08:53:15;100432.03;;;8.45;50.39
23953;BME280;12163;49.316;6.092;2023-04-03T08:55:45;100435.84;;;8.49;50.92
23953;BME280;12163;49.316;6.092;2023-04-03T08:58:16;100426.53;;;8.57;51.32
23953;BME280;12163;49.316;6.092;2023-04-03T09:00:48;100434.09;;;8.60;50.86
23953;BME280;12163;49.316;6.092;2023-04-03T09:03:18;100438.66;;;8.59;50.50
23953;BME280;12163;49.316;6.092;2023-04-03T09:05:51;100431.97;;;8.62;50.75
23953;BME280;12163;49.316;6.092;2023-04-03T09:11:55;100438.47;;;8.66;50.20
23953;BME280;12163;49.316;6.092;2023-04-03T09:22:33;100435.03;;;8.70;50.93
23953;BME280;12163;49.316;6.092;2023-04-03T09:25:12;100437.16;;;8.68;51.37
23953;BME280;12163;49.316;6.092;2023-04-03T09:27:39;100427.47;;;8.67;51.78
23953;BME280;12163;49.316;6.092;2023-04-03T09:30:16;100431.94;;;8.83;51.29
23953;BME280;12163;49.316;6.092;2023-04-03T09:32:47;100425.63;;;8.94;51.43
23953;BME280;12163;49.316;6.092;2023-04-03T09:35:25;100421.91;;;9.00;51.54
23953;BME280;12163;49.316;6.092;2023-04-03T09:40:38;100434.13;;;8.86;50.88
23953;BME280;12163;49.316;6.092;2023-04-03T09:43:24;100431.38;;;8.81;51.33
23953;BME280;12163;49.316;6.092;2023-04-03T09:45:52;100434.72;;;8.88;51.21
23953;BME280;12163;49.316;6.092;2023-04-03T09:48:20;100422.38;;;8.92;51.04
23953;BME280;12163;49.316;6.092;2023-04-03T09:55:57;100420.72;;;9.18;49.40
23953;BME280;12163;49.316;6.092;2023-04-03T09:58:30;100420.06;;;9.32;48.25
23953;BME280;12163;49.316;6.092;2023-04-03T10:01:31;100425.41;;;9.27;48.36
23953;BME280;12163;49.316;6.092;2023-04-03T10:04:16;100416.03;;;9.35;48.72
23953;BME280;12163;49.316;6.092;2023-04-03T10:06:50;100409.63;;;9.41;47.88
23953;BME280;12163;49.316;6.092;2023-04-03T10:09:26;100421.22;;;9.41;47.37
23953;BME280;12163;49.316;6.092;2023-04-03T10:14:28;100418.91;;;9.55;46.90
23953;BME280;12163;49.316;6.092;2023-04-03T10:17:17;100423.56;;;9.64;46.69
23953;BME280;12163;49.316;6.092;2023-04-03T10:19:59;100408.00;;;9.76;46.16
23953;BME280;12163;49.316;6.092;2023-04-03T10:23:33;100419.31;;;9.73;45.86
23953;BME280;12163;49.316;6.092;2023-04-03T10:28:32;100409.97;;;9.86;45.53
23953;BME280;12163;49.316;6.092;2023-04-03T10:34:06;100402.34;;;10.09;45.46
23953;BME280;12163;49.316;6.092;2023-04-03T10:36:46;100394.63;;;10.27;45.09
23953;BME280;12163;49.316;6.092;2023-04-03T10:42:19;100390.16;;;10.58;44.41
23953;BME280;12163;49.316;6.092;2023-04-03T10:52:58;100381.66;;;10.29;44.45
23953;BME280;12163;49.316;6.092;2023-04-03T10:55:48;100391.69;;;10.34;44.07
23953;BME280;12163;49.316;6.092;2023-04-03T10:58:29;100388.97;;;10.29;44.16
23953;BME280;12163;49.316;6.092;2023-04-03T11:01:01;100373.66;;;10.44;43.99
23953;BME280;12163;49.316;6.092;2023-04-03T11:03:42;100387.50;;;10.68;44.04
23953;BME280;12163;49.316;6.092;2023-04-03T11:06:13;100378.41;;;10.94;42.52
23953;BME280;12163;49.316;6.092;2023-04-03T11:09:07;100371.41;;;11.23;41.86
23953;BME280;12163;49.316;6.092;2023-04-03T11:11:39;100374.94;;;11.48;41.40
23953;BME280;12163;49.316;6.092;2023-04-03T11:14:31;100381.41;;;11.62;41.54
23953;BME280;12163;49.316;6.092;2023-04-03T11:22:27;100366.53;;;11.84;40.09
23953;BME280;12163;49.316;6.092;2023-04-03T11:24:59;100344.09;;;11.89;39.81
23953;BME280;12163;49.316;6.092;2023-04-03T11:27:35;100356.75;;;11.98;39.28
23953;BME280;12163;49.316;6.092;2023-04-03T11:30:07;100351.31;;;12.13;38.69
23953;BME280;12163;49.316;6.092;2023-04-03T11:35:51;100342.38;;;12.18;39.45
23953;BME280;12163;49.316;6.092;2023-04-03T11:38:29;100339.28;;;12.39;39.90
23953;BME280;12163;49.316;6.092;2023-04-03T11:41:02;100328.41;;;12.54;37.76
23953;BME280;12163;49.316;6.092;2023-04-03T11:43:30;100324.88;;;12.54;37.00
23953;BME280;12163;49.316;6.092;2023-04-03T11:46:05;100318.69;;;12.48;37.73
23953;BME280;12163;49.316;6.092;2023-04-03T11:53:44;100313.72;;;12.60;38.27
23953;BME280;12163;49.316;6.092;2023-04-03T12:01:48;100316.09;;;12.77;38.69
23953;BME280;12163;49.316;6.092;2023-04-03T12:04:16;100319.59;;;12.77;37.95
23953;BME280;12163;49.316;6.092;2023-04-03T12:09:28;100304.31;;;12.96;36.96
23953;BME280;12163;49.316;6.092;2023-04-03T12:11:56;100306.47;;;12.99;36.57
23953;BME280;12163;49.316;6.092;2023-04-03T12:14:25;100301.66;;;12.86;36.94
23953;BME280;12163;49.316;6.092;2023-04-03T12:16:56;100298.97;;;12.81;36.75
23953;BME280;12163;49.316;6.092;2023-04-03T12:22:12;100294.59;;;12.95;35.83
23953;BME280;12163;49.316;6.092;2023-04-03T12:24:47;100294.00;;;12.98;35.78
23953;BME280;12163;49.316;6.092;2023-04-03T12:30:20;100287.13;;;12.72;36.60
23953;BME280;12163;49.316;6.092;2023-04-03T12:33:02;100278.34;;;12.85;37.66
23953;BME280;12163;49.316;6.092;2023-04-03T12:35:44;100279.19;;;12.86;36.68
23953;BME280;12163;49.316;6.092;2023-04-03T12:38:21;100282.69;;;12.86;36.84
23953;BME280;12163;49.316;6.092;2023-04-03T12:46:53;100273.50;;;12.82;35.67
23953;BME280;12163;49.316;6.092;2023-04-03T12:51:53;100270.41;;;12.65;36.19
23953;BME280;12163;49.316;6.092;2023-04-03T12:54:25;100278.28;;;12.62;36.47
23953;BME280;12163;49.316;6.092;2023-04-03T12:59:42;100276.81;;;12.74;35.72
23953;BME280;12163;49.316;6.092;2023-04-03T13:02:23;100277.41;;;12.71;36.41
23953;BME280;12163;49.316;6.092;2023-04-03T13:04:57;100273.50;;;12.82;36.82
23953;BME280;12163;49.316;6.092;2023-04-03T13:07:30;100258.84;;;12.93;35.69
23953;BME280;12163;49.316;6.092;2023-04-03T13:12:34;100262.81;;;13.06;36.14
23953;BME280;12163;49.316;6.092;2023-04-03T13:17:49;100256.50;;;13.15;35.10
23953;BME280;12163;49.316;6.092;2023-04-03T13:20:25;100254.63;;;13.11;35.40
23953;BME280;12163;49.316;6.092;2023-04-03T13:23:02;100256.50;;;13.15;34.71
23953;BME280;12163;49.316;6.092;2023-04-03T13:25:35;100260.50;;;13.18;34.51
23953;BME280;12163;49.316;6.092;2023-04-03T13:28:04;100266.56;;;13.38;35.29
23953;BME280;12163;49.316;6.092;2023-04-03T13:30:40;100260.69;;;13.54;34.28
23953;BME280;12163;49.316;6.092;2023-04-03T13:33:23;100250.22;;;13.71;33.08
23953;BME280;12163;49.316;6.092;2023-04-03T13:36:20;100246.78;;;13.84;33.32
23953;BME280;12163;49.316;6.092;2023-04-03T13:41:40;100249.00;;;14.06;33.64
23953;BME280;12163;49.316;6.092;2023-04-03T13:46:51;100244.06;;;14.08;33.32
23953;BME280;12163;49.316;6.092;2023-04-03T13:49:39;100249.78;;;14.48;33.64
23953;BME280;12163;49.316;6.092;2023-04-03T13:55:00;100241.94;;;14.97;32.99
23953;BME280;12163;49.316;6.092;2023-04-03T13:57:28;100229.13;;;15.34;32.35
23953;BME280;12163;49.316;6.092;2023-04-03T13:59:55;100231.03;;;15.74;31.72
23953;BME280;12163;49.316;6.092;2023-04-03T14:02:34;100237.50;;;16.05;31.30
23953;BME280;12163;49.316;6.092;2023-04-03T14:05:02;100228.09;;;16.38;30.08
23953;BME280;12163;49.316;6.092;2023-04-03T14:07:30;100234.66;;;16.37;30.22
23953;BME280;12163;49.316;6.092;2023-04-03T14:09:57;100237.28;;;16.64;30.41
23953;BME280;12163;49.316;6.092;2023-04-03T14:12:25;100221.69;;;17.00;30.68
23953;BME280;12163;49.316;6.092;2023-04-03T14:14:57;100222.44;;;17.14;29.82
23953;BME280;12163;49.316;6.092;2023-04-03T14:17:24;100224.78;;;17.07;30.26
23953;BME280;12163;49.316;6.092;2023-04-03T14:19:51;100212.25;;;17.06;29.79
23953;BME280;12163;49.316;6.092;2023-04-03T14:24:50;100209.56;;;17.67;28.34
23953;BME280;12163;49.316;6.092;2023-04-03T14:27:22;100205.91;;;18.36;26.73
23953;BME280;12163;49.316;6.092;2023-04-03T14:29:53;100189.19;;;18.79;26.19
23953;BME280;12163;49.316;6.092;2023-04-03T14:32:22;100197.19;;;19.18;26.04
23953;BME280;12163;49.316;6.092;2023-04-03T14:34:49;100195.22;;;19.27;25.55
23953;BME280;12163;49.316;6.092;2023-04-03T14:37:20;100192.16;;;19.37;24.82
23953;BME280;12163;49.316;6.092;2023-04-03T14:39:48;100176.88;;;19.36;25.25
23953;BME280;12163;49.316;6.092;2023-04-03T14:42:25;100191.59;;;19.52;25.09
23953;BME280;12163;49.316;6.092;2023-04-03T14:44:52;100183.22;;;19.57;25.53
23953;BME280;12163;49.316;6.092;2023-04-03T14:47:22;100179.44;;;19.70;24.77
23953;BME280;12163;49.316;6.092;2023-04-03T14:49:59;100179.47;;;19.99;24.64
23953;BME280;12163;49.316;6.092;2023-04-03T14:52:35;100177.91;;;20.39;24.24
23953;BME280;12163;49.316;6.092;2023-04-03T14:55:04;100180.13;;;20.46;23.33
23953;BME280;12163;49.316;6.092;2023-04-03T14:57:32;100179.09;;;20.30;23.69
23953;BME280;12163;49.316;6.092;2023-04-03T14:59:59;100178.94;;;20.06;23.76